Time;durP1;ratioP1;P1;durP2;ratioP2;P2;SDS_P1;SDS_P2;PMS_P1;PMS_P2;Temp;Humidity;BMP_temperature;BMP_pressure;BME280_temperature;BME280_humidity;BME280_pressure;Samples;Min_cycle;Max_cycle;Signal;HPM_P1;HPM_P2
2023/12/15 00:00:15;;;;;;;;;;;;;;;17.09;48.79;100536.69;4987770;28;1134;-59
2023/12/15 00:02:40;;;;;;;;;;;;;;;17.78;49.40;100531.28;4994163;28;1028;-59
2023/12/15 00:05:06;;;;;;;;;;;;;;;17.43;49.49;100546.94;4987509;28;1048;-59
2023/12/15 00:07:31;;;;;;;;;;;;;;;17.13;48.49;100558.94;4981545;28;1976;-59
2023/12/15 00:09:57;;;;;;;;;;;;;;;18.02;48.96;100580.09;4987197;28;1080;-60
2023/12/15 00:12:22;;;;;;;;;;;;;;;17.58;49.07;100580.94;4982010;28;1135;-59
2023/12/15 00:14:48;;;;;;;;;;;;;;;17.09;48.81;100575.13;4978504;28;1052;-59
2023/12/15 00:17:13;;;;;;;;;;;;;;;17.35;48.87;100582.44;4978039;28;1176;-60
2023/12/15 00:19:39;;;;;;;;;;;;;;;17.94;48.81;100589.75;4977999;28;962;-58
2023/12/15 00:22:04;;;;;;;;;;;;;;;17.25;48.90;100594.28;4991081;28;981;-59
2023/12/15 00:24:30;;;;;;;;;;;;;;;17.18;48.68;100597.38;4977601;28;1061;-59
2023/12/15 00:26:57;;;;;;;;;;;;;;;17.78;49.27;100596.44;4980334;28;1902;-59
2023/12/15 00:29:23;;;;;;;;;;;;;;;17.15;48.94;100599.84;4997158;28;1166;-59
2023/12/15 00:31:48;;;;;;;;;;;;;;;17.05;47.88;100596.03;4981014;28;1040;-59
2023/12/15 00:34:14;;;;;;;;;;;;;;;18.13;48.56;100595.41;4977676;28;993;-59
2023/12/15 00:36:39;;;;;;;;;;;;;;;17.30;48.96;100588.78;4978112;28;1150;-59
2023/12/15 00:39:05;;;;;;;;;;;;;;;17.04;48.34;100590.81;4986225;28;1005;-59
2023/12/15 00:41:30;;;;;;;;;;;;;;;17.85;49.33;100591.47;4982352;28;1053;-59
2023/12/15 00:43:56;;;;;;;;;;;;;;;17.42;49.34;100603.00;4984833;28;1034;-59
2023/12/15 00:46:22;;;;;;;;;;;;;;;17.05;48.40;100600.72;4982796;28;1902;-59
2023/12/15 00:48:47;;;;;;;;;;;;;;;17.76;48.92;100607.75;4988209;28;1122;-59
2023/12/15 00:51:13;;;;;;;;;;;;;;;17.64;49.28;100592.72;4991892;28;1044;-58
2023/12/15 00:53:38;;;;;;;;;;;;;;;17.18;48.76;100602.88;4996387;28;1032;-58
2023/12/15 00:56:04;;;;;;;;;;;;;;;18.10;49.06;100615.25;4983196;28;1204;-58
2023/12/15 00:58:29;;;;;;;;;;;;;;;17.63;49.11;100624.91;4988532;28;1088;-59
2023/12/15 01:00:55;;;;;;;;;;;;;;;17.24;48.46;100620.16;4977651;28;1060;-59
2023/12/15 01:03:20;;;;;;;;;;;;;;;18.06;48.93;100636.19;4977164;28;1147;-59
2023/12/15 01:05:46;;;;;;;;;;;;;;;17.40;49.04;100632.72;4989958;28;1039;-58
2023/12/15 01:08:11;;;;;;;;;;;;;;;17.09;48.38;100646.56;4977378;28;1914;-60
2023/12/15 01:10:37;;;;;;;;;;;;;;;18.06;48.93;100644.44;4991529;28;1064;-60
2023/12/15 01:13:03;;;;;;;;;;;;;;;17.36;49.43;100631.66;4989377;28;1071;-61
2023/12/15 01:15:28;;;;;;;;;;;;;;;17.08;48.42;100636.69;4976670;28;1053;-61
2023/12/15 01:17:53;;;;;;;;;;;;;;;16.92;47.56;100646.09;4977403;28;1131;-60
2023/12/15 01:20:19;;;;;;;;;;;;;;;17.38;48.70;100665.16;4976861;28;1077;-60
2023/12/15 01:22:45;;;;;;;;;;;;;;;17.50;49.40;100667.59;4977343;28;1089;-60
2023/12/15 01:25:10;;;;;;;;;;;;;;;17.55;49.69;100663.97;4977285;28;1173;-59
2023/12/15 01:27:36;;;;;;;;;;;;;;;18.91;47.60;100667.09;4977131;28;1910;-60
2023/12/15 01:30:01;;;;;;;;;;;;;;;17.67;49.19;100655.38;4977274;28;1049;-59
2023/12/15 01:32:27;;;;;;;;;;;;;;;17.27;48.30;100652.56;4991580;28;1024;-58
2023/12/15 01:34:52;;;;;;;;;;;;;;;17.03;47.68;100649.63;4977472;28;1041;-58
2023/12/15 01:37:18;;;;;;;;;;;;;;;16.99;47.65;100645.81;4983689;28;1129;-59
2023/12/15 01:39:43;;;;;;;;;;;;;;;18.19;48.99;100655.88;4982583;28;1172;-61
2023/12/15 01:42:09;;;;;;;;;;;;;;;17.32;49.31;100643.47;4977167;28;1234;-60
2023/12/15 01:44:34;;;;;;;;;;;;;;;17.17;48.70;100652.63;4977028;28;857;-61
2023/12/15 01:47:01;;;;;;;;;;;;;;;18.42;48.34;100655.13;4989504;28;1914;-62
2023/12/15 01:49:28;;;;;;;;;;;;;;;17.44;49.27;100649.47;4989898;28;1108;-62
2023/12/15 01:51:53;;;;;;;;;;;;;;;18.22;49.02;100661.63;4988365;28;1100;-62
2023/12/15 01:54:19;;;;;;;;;;;;;;;18.08;49.05;100660.66;4989060;28;1223;-63
2023/12/15 01:56:44;;;;;;;;;;;;;;;17.49;48.59;100676.09;4999760;28;853;-62
2023/12/15 01:59:10;;;;;;;;;;;;;;;17.22;47.90;100671.81;4986755;28;1104;-62
2023/12/15 02:01:36;;;;;;;;;;;;;;;18.08;49.09;100671.66;4995471;28;1060;-62
2023/12/15 02:04:01;;;;;;;;;;;;;;;17.44;48.99;100665.94;4986684;28;1036;-62
2023/12/15 02:06:27;;;;;;;;;;;;;;;17.14;48.01;100680.63;4987059;28;1902;-62
2023/12/15 02:08:52;;;;;;;;;;;;;;;17.99;49.03;100690.69;4986193;28;1371;-62
2023/12/15 02:11:18;;;;;;;;;;;;;;;17.30;49.12;100693.22;4967952;28;1153;-63
2023/12/15 02:13:43;;;;;;;;;;;;;;;17.04;47.93;100682.31;4993475;28;1057;-62
2023/12/15 02:16:09;;;;;;;;;;;;;;;17.58;49.00;100697.22;4979957;28;1068;-62
2023/12/15 02:18:35;;;;;;;;;;;;;;;17.49;49.47;100698.09;4979875;28;1099;-63
2023/12/15 02:21:00;;;;;;;;;;;;;;;16.96;48.58;100713.09;4992449;28;979;-63
2023/12/15 02:23:26;;;;;;;;;;;;;;;18.05;48.99;100717.09;4979732;28;1021;-62
2023/12/15 02:25:51;;;;;;;;;;;;;;;17.38;48.82;100727.56;4986564;28;1219;-62
2023/12/15 02:28:17;;;;;;;;;;;;;;;17.13;48.64;100740.25;4986376;28;1898;-62
2023/12/15 02:30:42;;;;;;;;;;;;;;;17.98;48.69;100733.09;4967174;28;1137;-63
2023/12/15 02:33:08;;;;;;;;;;;;;;;17.28;48.86;100733.91;4982519;28;1137;-63
2023/12/15 02:35:33;;;;;;;;;;;;;;;16.96;48.20;100740.56;4973242;28;998;-62
2023/12/15 02:38:00;;;;;;;;;;;;;;;18.22;48.70;100754.41;4986061;28;1127;-63
2023/12/15 02:40:26;;;;;;;;;;;;;;;17.48;49.09;100759.69;4980352;28;1199;-63
2023/12/15 02:42:51;;;;;;;;;;;;;;;17.14;48.22;100757.56;4992323;28;1179;-62
2023/12/15 02:45:17;;;;;;;;;;;;;;;18.15;48.76;100756.66;4992144;28;1188;-60
2023/12/15 02:47:42;;;;;;;;;;;;;;;17.42;48.96;100750.63;4992674;28;1973;-60
2023/12/15 02:50:09;;;;;;;;;;;;;;;17.16;48.16;100749.88;4985837;28;1057;-60
2023/12/15 02:52:35;;;;;;;;;;;;;;;17.21;48.10;100769.09;4998932;28;1044;-60
2023/12/15 02:55:00;;;;;;;;;;;;;;;18.11;48.57;100770.16;4998913;28;1075;-60
2023/12/15 02:57:26;;;;;;;;;;;;;;;17.34;48.84;100782.25;4985460;28;841;-60
2023/12/15 02:59:51;;;;;;;;;;;;;;;17.07;47.97;100780.66;4985506;28;1148;-60
2023/12/15 03:02:17;;;;;;;;;;;;;;;17.88;48.69;100797.19;4986316;28;1222;-60
2023/12/15 03:04:42;;;;;;;;;;;;;;;17.17;48.92;100795.50;4998302;28;1075;-60
2023/12/15 03:07:08;;;;;;;;;;;;;;;16.94;47.84;100789.44;4985700;28;1910;-60
2023/12/15 03:09:33;;;;;;;;;;;;;;;18.02;48.51;100782.84;4978456;28;1069;-60
2023/12/15 03:11:59;;;;;;;;;;;;;;;17.23;48.95;100788.88;4992149;28;1139;-60
2023/12/15 03:14:24;;;;;;;;;;;;;;;16.96;48.10;100787.25;4992493;28;1077;-60
2023/12/15 03:16:50;;;;;;;;;;;;;;;18.19;48.46;100793.47;4978862;28;1040;-60
2023/12/15 03:19:15;;;;;;;;;;;;;;;17.42;49.00;100806.44;4997400;28;1033;-62
2023/12/15 03:21:41;;;;;;;;;;;;;;;17.06;48.12;100814.72;4985725;28;970;-62
2023/12/15 03:24:06;;;;;;;;;;;;;;;17.00;48.05;100829.56;4997410;28;1196;-62
2023/12/15 03:26:32;;;;;;;;;;;;;;;17.88;48.79;100826.63;4999000;28;1906;-62
2023/12/15 03:28:57;;;;;;;;;;;;;;;17.16;48.95;100832.31;4984927;28;1120;-61
2023/12/15 03:31:23;;;;;;;;;;;;;;;16.89;48.09;100831.47;4998177;28;1126;-61
2023/12/15 03:33:48;;;;;;;;;;;;;;;18.15;48.53;100836.47;4985180;28;1185;-61
2023/12/15 03:36:14;;;;;;;;;;;;;;;17.30;49.09;100843.56;4998446;28;1123;-61
2023/12/15 03:38:39;;;;;;;;;;;;;;;17.10;47.86;100851.53;4997041;28;1173;-61
2023/12/15 03:41:05;;;;;;;;;;;;;;;17.53;49.02;100853.13;4998084;28;1052;-62
2023/12/15 03:43:30;;;;;;;;;;;;;;;17.08;48.50;100869.38;4997848;28;1123;-62
2023/12/15 03:45:57;;;;;;;;;;;;;;;18.27;48.37;100883.72;4985993;28;1028;-62
2023/12/15 03:48:23;;;;;;;;;;;;;;;17.68;49.03;100885.28;4991464;28;1911;-62
2023/12/15 03:50:48;;;;;;;;;;;;;;;17.26;48.30;100887.25;4989485;28;1033;-62
2023/12/15 03:53:14;;;;;;;;;;;;;;;17.01;47.56;100891.66;4984566;28;1024;-62
2023/12/15 03:55:39;;;;;;;;;;;;;;;17.93;48.96;100903.66;4997801;28;1059;-62
2023/12/15 03:58:05;;;;;;;;;;;;;;;17.22;48.87;100910.88;4979512;28;839;-62
2023/12/15 04:00:30;;;;;;;;;;;;;;;17.88;49.33;100909.16;4989360;28;1227;-62
2023/12/15 04:02:56;;;;;;;;;;;;;;;17.74;49.02;100914.41;4997563;28;1053;-61
2023/12/15 04:05:21;;;;;;;;;;;;;;;17.22;48.79;100919.13;4986793;28;1124;-62
2023/12/15 04:07:47;;;;;;;;;;;;;;;16.96;47.94;100921.00;4990813;28;1981;-61
2023/12/15 04:10:12;;;;;;;;;;;;;;;16.87;46.89;100912.47;4978114;28;876;-62
2023/12/15 04:12:38;;;;;;;;;;;;;;;18.04;48.80;100934.75;4991020;28;1247;-61
2023/12/15 04:15:03;;;;;;;;;;;;;;;17.36;48.92;100941.38;4983163;28;1148;-56
2023/12/15 04:17:29;;;;;;;;;;;;;;;17.30;48.94;100929.56;4987140;28;1103;-57
2023/12/15 04:19:54;;;;;;;;;;;;;;;18.42;48.20;100930.44;4980627;28;1142;-58
2023/12/15 04:22:22;;;;;;;;;;;;;;;17.41;48.97;100935.91;4987101;28;859;-58
2023/12/15 04:24:48;;;;;;;;;;;;;;;17.12;47.84;100919.13;4980843;28;1538;-59
2023/12/15 04:27:13;;;;;;;;;;;;;;;18.07;49.07;100946.00;4987920;28;1906;-60
2023/12/15 04:29:39;;;;;;;;;;;;;;;17.31;49.11;100938.66;4980044;28;1064;-60
2023/12/15 04:32:05;;;;;;;;;;;;;;;17.04;48.00;100936.97;4987847;28;1152;-58
2023/12/15 04:34:33;;;;;;;;;;;;;;;17.41;48.69;100944.16;4980192;28;992;-58
2023/12/15 04:36:58;;;;;;;;;;;;;;;17.53;48.81;100946.59;4991308;28;1176;-58
2023/12/15 04:39:24;;;;;;;;;;;;;;;17.33;49.21;100941.94;4985992;28;1136;-58
2023/12/15 04:41:49;;;;;;;;;;;;;;;18.63;47.83;100956.00;4990541;28;1013;-58
2023/12/15 04:44:15;;;;;;;;;;;;;;;17.54;49.00;100964.75;4977430;28;1413;-57
2023/12/15 04:46:41;;;;;;;;;;;;;;;17.24;48.14;100958.16;4977515;28;1981;-55
2023/12/15 04:49:06;;;;;;;;;;;;;;;17.01;47.08;100965.84;4991116;28;1124;-58
2023/12/15 04:51:32;;;;;;;;;;;;;;;18.24;48.58;100975.13;4988787;28;1073;-60
2023/12/15 04:53:57;;;;;;;;;;;;;;;17.30;49.42;100987.28;4989393;28;1328;-61
2023/12/15 04:56:23;;;;;;;;;;;;;;;17.07;48.07;101005.13;4981976;28;1447;-58
2023/12/15 04:58:49;;;;;;;;;;;;;;;17.02;47.05;100997.69;4982047;28;1091;-60
2023/12/15 05:01:15;;;;;;;;;;;;;;;17.97;48.81;101006.56;4985150;28;949;-58
2023/12/15 05:03:40;;;;;;;;;;;;;;;17.16;49.27;101008.97;4984566;28;1149;-58
2023/12/15 05:06:06;;;;;;;;;;;;;;;17.60;49.34;101021.41;4976865;28;1008;-58
2023/12/15 05:08:32;;;;;;;;;;;;;;;17.75;49.16;101031.56;4987979;28;1906;-61
2023/12/15 05:10:57;;;;;;;;;;;;;;;17.20;48.82;101028.50;4990945;28;1093;-60
2023/12/15 05:13:23;;;;;;;;;;;;;;;16.99;47.92;101047.69;4983118;28;1172;-63
2023/12/15 05:15:49;;;;;;;;;;;;;;;17.66;49.45;101039.56;4996755;28;1096;-60
2023/12/15 05:18:16;;;;;;;;;;;;;;;17.19;49.02;101035.09;4996163;28;1179;-61
2023/12/15 05:20:42;;;;;;;;;;;;;;;16.93;47.98;101038.59;4994259;28;1044;-60
2023/12/15 05:23:08;;;;;;;;;;;;;;;16.71;47.55;101044.25;4977481;28;1009;-60
2023/12/15 05:25:34;;;;;;;;;;;;;;;18.10;48.62;101050.03;4989394;28;1310;-62
2023/12/15 05:27:59;;;;;;;;;;;;;;;18.31;48.24;101058.22;4984187;28;1910;-67
2023/12/15 05:30:25;;;;;;;;;;;;;;;17.56;49.84;101072.56;4981444;28;1231;-63
2023/12/15 05:32:50;;;;;;;;;;;;;;;17.15;50.94;101067.78;4996015;28;1126;-63
2023/12/15 05:35:16;;;;;;;;;;;;;;;16.89;51.41;101058.63;4987409;28;1004;-63
2023/12/15 05:37:41;;;;;;;;;;;;;;;16.64;51.84;101057.38;4989923;28;1115;-62
2023/12/15 05:40:11;;;;;;;;;;;;;;;16.47;51.91;101071.31;4997805;28;1093;-64
2023/12/15 05:42:37;;;;;;;;;;;;;;;16.36;52.18;101081.38;4981793;28;1312;-66
2023/12/15 05:45:03;;;;;;;;;;;;;;;16.36;51.83;101089.63;4980837;28;1186;-59
2023/12/15 05:47:29;;;;;;;;;;;;;;;16.04;52.61;101097.91;4981049;28;1902;-58
2023/12/15 05:49:54;;;;;;;;;;;;;;;15.92;52.63;101092.56;4993296;28;1063;-60
2023/12/15 05:52:20;;;;;;;;;;;;;;;15.81;52.99;101088.94;4993502;28;1088;-60
2023/12/15 05:54:46;;;;;;;;;;;;;;;15.69;53.03;101115.66;4980694;28;1119;-61
2023/12/15 05:57:11;;;;;;;;;;;;;;;15.54;53.26;101119.91;4984169;28;1004;-57
2023/12/15 05:59:37;;;;;;;;;;;;;;;16.52;52.16;101130.88;4991376;28;1124;-58
2023/12/15 06:02:02;;;;;;;;;;;;;;;16.98;50.69;101119.38;4982829;28;1077;-59
2023/12/15 06:04:28;;;;;;;;;;;;;;;16.38;52.56;101136.84;4987541;28;1305;-57
2023/12/15 06:06:54;;;;;;;;;;;;;;;16.06;52.87;101145.06;4991867;28;1977;-59
2023/12/15 06:09:20;;;;;;;;;;;;;;;15.81;53.18;101137.44;4995537;28;1032;-58
2023/12/15 06:11:45;;;;;;;;;;;;;;;15.68;53.78;101136.78;4992058;28;1053;-57
2023/12/15 06:14:10;;;;;;;;;;;;;;;17.19;50.50;101148.56;4984778;28;1286;-58
2023/12/15 06:16:36;;;;;;;;;;;;;;;16.70;51.37;101155.16;4986910;28;1095;-51
2023/12/15 06:19:02;;;;;;;;;;;;;;;16.30;52.40;101153.81;5000170;28;1143;-57
2023/12/15 06:21:28;;;;;;;;;;;;;;;15.97;52.72;101157.63;4983910;28;915;-62
2023/12/15 06:23:54;;;;;;;;;;;;;;;16.04;53.16;101170.03;4989160;28;1136;-59
2023/12/15 06:26:23;;;;;;;;;;;;;;;17.48;49.62;101169.31;4983457;28;1023;-60
2023/12/15 06:28:48;;;;;;;;;;;;;;;16.58;51.50;101179.28;4980316;28;1997;-62
2023/12/15 06:31:14;;;;;;;;;;;;;;;16.18;52.63;101192.38;4980991;28;1072;-61
2023/12/15 06:33:39;;;;;;;;;;;;;;;15.94;52.92;101180.91;4994048;28;1130;-63
2023/12/15 06:36:06;;;;;;;;;;;;;;;16.46;52.02;101175.88;4992369;28;1053;-60
2023/12/15 06:38:31;;;;;;;;;;;;;;;17.72;48.59;101167.72;4992643;28;1125;-59
2023/12/15 06:40:56;;;;;;;;;;;;;;;16.73;51.18;101173.88;4989233;28;1140;-60
2023/12/15 06:43:22;;;;;;;;;;;;;;;16.25;52.29;101187.50;4982497;28;1239;-60
2023/12/15 06:45:48;;;;;;;;;;;;;;;15.96;52.96;101188.88;4984291;28;1088;-60
2023/12/15 06:48:14;;;;;;;;;;;;;;;15.85;52.75;101201.66;4983507;28;2050;-61
2023/12/15 06:50:39;;;;;;;;;;;;;;;17.17;50.11;101213.16;4988750;28;1144;-59
2023/12/15 06:53:05;;;;;;;;;;;;;;;17.12;49.92;101210.38;4983721;28;1428;-57
2023/12/15 06:55:30;;;;;;;;;;;;;;;16.40;51.74;101217.00;4988944;28;1148;-56
2023/12/15 06:57:56;;;;;;;;;;;;;;;16.13;52.47;101219.78;4983170;28;1178;-55
2023/12/15 07:00:21;;;;;;;;;;;;;;;15.95;52.86;101225.63;4993732;28;1175;-56
2023/12/15 07:02:47;;;;;;;;;;;;;;;15.79;52.82;101219.97;4990714;28;1075;-59
2023/12/15 07:05:12;;;;;;;;;;;;;;;16.57;51.77;101221.53;4986143;28;1117;-61
2023/12/15 07:07:38;;;;;;;;;;;;;;;17.52;49.08;101241.91;4984227;28;1910;-60
2023/12/15 07:10:04;;;;;;;;;;;;;;;16.53;51.38;101267.88;4990034;28;950;-60
2023/12/15 07:12:29;;;;;;;;;;;;;;;16.08;52.74;101264.44;4992634;28;985;-60
2023/12/15 07:14:55;;;;;;;;;;;;;;;15.88;52.84;101264.25;4984293;28;1116;-59
2023/12/15 07:17:20;;;;;;;;;;;;;;;15.68;53.20;101259.28;4985224;28;1285;-60
2023/12/15 07:19:46;;;;;;;;;;;;;;;15.47;53.89;101261.78;4975593;28;1061;-60
2023/12/15 07:22:13;;;;;;;;;;;;;;;16.98;50.77;101257.53;4988843;28;878;-59
2023/12/15 07:24:40;;;;;;;;;;;;;;;17.03;50.13;101267.75;4983457;28;1079;-60
2023/12/15 07:27:06;;;;;;;;;;;;;;;16.21;52.37;101276.09;4987213;28;1911;-60
2023/12/15 07:29:31;;;;;;;;;;;;;;;15.97;52.69;101279.13;4989257;28;1265;-60
2023/12/15 07:31:56;;;;;;;;;;;;;;;15.68;53.21;101275.75;4981001;28;985;-59
2023/12/15 07:34:22;;;;;;;;;;;;;;;15.61;53.67;101281.41;4979289;28;1359;-60
2023/12/15 07:36:47;;;;;;;;;;;;;;;17.09;50.38;101280.44;4982058;28;1344;-60
2023/12/15 07:39:13;;;;;;;;;;;;;;;17.06;50.08;101281.78;4980317;28;1064;-60
2023/12/15 07:41:39;;;;;;;;;;;;;;;16.41;51.59;101292.78;4985858;28;1449;-59
2023/12/15 07:44:04;;;;;;;;;;;;;;;15.97;52.54;101281.06;4990934;28;1047;-60
2023/12/15 07:46:30;;;;;;;;;;;;;;;15.74;52.99;101281.03;4980491;28;1055;-61
2023/12/15 07:48:55;;;;;;;;;;;;;;;15.63;53.22;101295.72;4990436;28;1989;-61
2023/12/15 07:51:21;;;;;;;;;;;;;;;16.69;51.39;101299.06;4976307;28;1166;-58
2023/12/15 07:53:47;;;;;;;;;;;;;;;17.65;48.43;101312.91;4976305;28;1348;-60
2023/12/15 07:56:22;;;;;;;;;;;;;;;16.59;50.99;101324.50;4991653;28;1064;-60
2023/12/15 07:58:49;;;;;;;;;;;;;;;16.10;52.26;101332.75;4987118;28;1584;-60
2023/12/15 08:01:16;;;;;;;;;;;;;;;15.82;52.88;101336.53;4993721;28;1130;-57
2023/12/15 08:03:41;;;;;;;;;;;;;;;17.16;50.04;101340.66;4997492;28;1044;-58
2023/12/15 08:06:07;;;;;;;;;;;;;;;16.98;50.04;101344.66;4983123;28;1340;-60
2023/12/15 08:08:32;;;;;;;;;;;;;;;16.36;51.71;101346.78;4975896;28;1909;-58
2023/12/15 08:10:58;;;;;;;;;;;;;;;16.01;52.36;101357.09;4976652;28;1654;-57
2023/12/15 08:13:23;;;;;;;;;;;;;;;15.79;52.80;101342.50;4996101;28;1022;-58
2023/12/15 08:15:49;;;;;;;;;;;;;;;17.19;49.73;101340.13;4985785;28;1223;-59
2023/12/15 08:18:14;;;;;;;;;;;;;;;16.88;50.21;101348.09;4974182;28;1241;-57
2023/12/15 08:20:40;;;;;;;;;;;;;;;16.23;51.82;101339.78;4994102;28;1088;-59
2023/12/15 08:23:05;;;;;;;;;;;;;;;15.95;52.66;101347.16;4987783;28;861;-60
2023/12/15 08:25:31;;;;;;;;;;;;;;;15.72;53.26;101357.25;4997256;28;1126;-60
2023/12/15 08:27:57;;;;;;;;;;;;;;;15.91;52.81;101351.47;4995295;28;1993;-60
2023/12/15 08:30:22;;;;;;;;;;;;;;;17.40;49.44;101343.84;4996924;28;1149;-56
2023/12/15 08:32:48;;;;;;;;;;;;;;;16.65;51.09;101347.34;4976479;28;1365;-57
2023/12/15 08:35:13;;;;;;;;;;;;;;;17.71;49.25;101342.09;4973889;28;1231;-57
2023/12/15 08:37:39;;;;;;;;;;;;;;;18.23;48.05;101332.16;4983551;28;1365;-59
2023/12/15 08:40:05;;;;;;;;;;;;;;;17.14;50.52;101340.09;4996151;28;1432;-60
2023/12/15 08:42:30;;;;;;;;;;;;;;;16.67;51.85;101339.66;4996222;28;1325;-55
2023/12/15 08:44:56;;;;;;;;;;;;;;;16.35;52.37;101361.59;4995037;28;1301;-58
2023/12/15 08:47:21;;;;;;;;;;;;;;;16.12;52.65;101351.72;4996413;28;1910;-58
2023/12/15 08:49:47;;;;;;;;;;;;;;;15.94;53.40;101350.16;4992566;28;1266;-58
2023/12/15 08:52:13;;;;;;;;;;;;;;;15.81;53.16;101365.03;4989577;28;1369;-58
2023/12/15 08:54:39;;;;;;;;;;;;;;;17.12;51.41;101375.25;4976765;28;1230;-58
2023/12/15 08:57:04;;;;;;;;;;;;;;;16.97;51.20;101385.03;4975694;28;1408;-58
2023/12/15 08:59:30;;;;;;;;;;;;;;;16.23;52.87;101391.94;4980954;28;1131;-59
2023/12/15 09:01:55;;;;;;;;;;;;;;;16.01;53.41;101362.56;4980581;28;1609;-58
2023/12/15 09:04:21;;;;;;;;;;;;;;;15.73;53.87;101356.16;4996490;28;1183;-58
2023/12/15 09:06:46;;;;;;;;;;;;;;;15.67;54.04;101368.13;4993572;28;1918;-59
2023/12/15 09:09:12;;;;;;;;;;;;;;;17.15;51.15;101345.31;4988333;28;1021;-59
2023/12/15 09:11:37;;;;;;;;;;;;;;;16.82;51.41;101355.47;4982836;28;1397;-58
2023/12/15 09:14:03;;;;;;;;;;;;;;;16.27;52.95;101356.56;4974521;28;1112;-57
2023/12/15 09:16:28;;;;;;;;;;;;;;;15.94;53.25;101361.13;4964241;28;1181;-58
2023/12/15 09:18:54;;;;;;;;;;;;;;;15.81;54.04;101362.28;4991514;28;1229;-59
2023/12/15 09:21:19;;;;;;;;;;;;;;;17.28;50.58;101360.53;4976745;28;990;-58
2023/12/15 09:23:46;;;;;;;;;;;;;;;16.84;51.46;101391.72;4988247;28;1120;-60
2023/12/15 09:26:11;;;;;;;;;;;;;;;16.23;52.94;101400.16;4988810;28;1262;-60
2023/12/15 09:28:38;;;;;;;;;;;;;;;15.90;53.32;101393.69;4988911;28;1964;-59
2023/12/15 09:31:04;;;;;;;;;;;;;;;15.75;53.40;101380.56;4990671;28;1187;-60
2023/12/15 09:33:29;;;;;;;;;;;;;;;17.09;51.00;101371.09;4984925;28;1114;-60
2023/12/15 09:35:56;;;;;;;;;;;;;;;16.86;51.30;101370.34;4984113;28;1207;-59
2023/12/15 09:38:21;;;;;;;;;;;;;;;16.22;52.71;101371.06;4973826;28;1322;-60
2023/12/15 09:40:47;;;;;;;;;;;;;;;15.91;53.46;101381.66;4982115;28;1267;-60
2023/12/15 09:43:13;;;;;;;;;;;;;;;15.70;53.80;101377.78;4979523;28;1103;-61
2023/12/15 09:45:39;;;;;;;;;;;;;;;17.10;50.84;101384.59;4974011;28;1357;-60
2023/12/15 09:48:04;;;;;;;;;;;;;;;16.71;51.52;101394.91;4992532;28;1971;-59
2023/12/15 09:50:31;;;;;;;;;;;;;;;16.12;52.77;101390.13;4986680;28;1202;-61
2023/12/15 09:52:57;;;;;;;;;;;;;;;15.81;53.50;101393.31;4968348;28;1135;-60
2023/12/15 09:55:22;;;;;;;;;;;;;;;16.13;53.43;101387.16;5008529;28;1196;-60
2023/12/15 09:57:49;;;;;;;;;;;;;;;17.43;49.93;101398.28;4985257;28;1122;-61
2023/12/15 10:00:14;;;;;;;;;;;;;;;16.51;52.04;101410.09;4985730;28;1330;-60
2023/12/15 10:02:40;;;;;;;;;;;;;;;16.06;52.84;101420.25;4975231;28;1506;-59
2023/12/15 10:05:06;;;;;;;;;;;;;;;15.76;53.37;101425.28;4974666;28;1068;-60
2023/12/15 10:07:31;;;;;;;;;;;;;;;17.03;51.12;101438.09;4971760;28;1898;-60
2023/12/15 10:09:57;;;;;;;;;;;;;;;16.79;51.41;101432.06;4989915;28;1329;-61
2023/12/15 10:12:22;;;;;;;;;;;;;;;16.16;52.95;101424.19;4978924;28;1235;-61
2023/12/15 10:14:48;;;;;;;;;;;;;;;15.91;53.08;101423.59;4985421;28;1312;-61
2023/12/15 10:17:13;;;;;;;;;;;;;;;15.67;53.91;101422.97;4993971;28;1129;-61
2023/12/15 10:19:39;;;;;;;;;;;;;;;17.16;50.68;101436.84;4998550;28;1076;-61
2023/12/15 10:22:05;;;;;;;;;;;;;;;16.68;51.65;101434.69;4987033;28;1211;-61
2023/12/15 10:24:31;;;;;;;;;;;;;;;16.10;53.04;101428.78;4994269;28;930;-61
2023/12/15 10:26:56;;;;;;;;;;;;;;;15.74;53.44;101440.06;4988719;28;1902;-61
2023/12/15 10:29:24;;;;;;;;;;;;;;;16.02;53.55;101441.03;4980414;28;970;-61
2023/12/15 10:31:51;;;;;;;;;;;;;;;17.44;50.02;101428.25;4999651;28;1065;-61
2023/12/15 10:34:16;;;;;;;;;;;;;;;16.58;51.62;101429.94;4998005;28;1055;-61
2023/12/15 10:36:45;;;;;;;;;;;;;;;16.06;52.79;101444.94;4991886;28;1505;-61
2023/12/15 10:39:14;;;;;;;;;;;;;;;15.87;53.09;101460.84;4987928;28;1033;-61
2023/12/15 10:41:39;;;;;;;;;;;;;;;16.51;52.57;101477.88;4999118;28;1025;-61
2023/12/15 10:44:05;;;;;;;;;;;;;;;17.62;49.52;101471.03;4998856;28;1462;-61
2023/12/15 10:46:31;;;;;;;;;;;;;;;16.56;51.90;101453.22;4997664;28;1047;-61
2023/12/15 10:48:56;;;;;;;;;;;;;;;16.06;52.75;101447.69;4992352;28;1905;-61
2023/12/15 10:51:24;;;;;;;;;;;;;;;15.79;53.26;101449.47;4995258;28;1084;-61
2023/12/15 10:53:51;;;;;;;;;;;;;;;16.89;51.38;101448.69;4988553;28;1022;-62
2023/12/15 10:56:17;;;;;;;;;;;;;;;16.82;51.03;101442.53;4989510;28;1127;-59
2023/12/15 10:58:43;;;;;;;;;;;;;;;16.14;52.85;101462.03;5007911;28;1140;-59
2023/12/15 11:01:09;;;;;;;;;;;;;;;15.87;53.19;101460.03;4995436;28;969;-59
2023/12/15 11:03:35;;;;;;;;;;;;;;;15.63;53.92;101462.13;4997274;28;1098;-60
2023/12/15 11:06:00;;;;;;;;;;;;;;;17.05;51.06;101463.38;4999248;28;1134;-59
2023/12/15 11:08:26;;;;;;;;;;;;;;;17.02;50.57;101464.75;4998521;28;1911;-59
2023/12/15 11:10:52;;;;;;;;;;;;;;;16.22;52.71;101472.59;4998897;28;1075;-58
2023/12/15 11:13:36;;;;;;;;;;;;;;;15.94;53.10;101487.28;4996811;28;958;-59
2023/12/15 11:16:02;;;;;;;;;;;;;;;15.77;53.56;101484.50;4987430;28;1211;-60
2023/12/15 11:18:27;;;;;;;;;;;;;;;17.14;50.79;101466.50;4997348;28;1155;-57
2023/12/15 11:20:53;;;;;;;;;;;;;;;16.97;50.54;101483.09;4987011;28;1227;-57
2023/12/15 11:23:18;;;;;;;;;;;;;;;16.34;52.43;101494.41;4981306;28;1334;-57
2023/12/15 11:25:50;;;;;;;;;;;;;;;15.99;52.89;101501.06;4993341;28;1302;-57
2023/12/15 11:28:15;;;;;;;;;;;;;;;15.84;53.42;101504.41;4991046;28;1898;-58
2023/12/15 11:30:41;;;;;;;;;;;;;;;17.27;50.24;101496.31;4991562;28;1151;-58
2023/12/15 11:33:30;;;;;;;;;;;;;;;16.70;51.40;101495.69;4991154;28;1162;-57
2023/12/15 11:35:59;;;;;;;;;;;;;;;16.01;52.95;101509.88;4987924;28;1174;-58
2023/12/15 11:38:25;;;;;;;;;;;;;;;15.82;53.30;101518.38;4985960;28;1164;-58
2023/12/15 11:40:52;;;;;;;;;;;;;;;16.45;52.29;101531.06;4988855;28;1124;-58
2023/12/15 11:43:17;;;;;;;;;;;;;;;17.55;49.36;101522.66;4978676;28;1080;-59
2023/12/15 11:45:43;;;;;;;;;;;;;;;16.55;51.74;101526.53;4983722;28;1156;-59
2023/12/15 11:48:12;;;;;;;;;;;;;;;16.08;52.96;101527.00;4991734;28;2033;-60
2023/12/15 11:50:43;;;;;;;;;;;;;;;15.86;53.02;101529.66;4991584;28;1052;-59
2023/12/15 11:53:15;;;;;;;;;;;;;;;16.89;51.32;101531.91;4991206;28;1117;-58
2023/12/15 11:55:44;;;;;;;;;;;;;;;16.96;50.83;101531.72;4991201;28;1124;-57
2023/12/15 11:58:10;;;;;;;;;;;;;;;16.19;52.54;101545.25;4992279;28;1135;-58
2023/12/15 12:00:36;;;;;;;;;;;;;;;15.88;53.12;101538.50;4996728;28;947;-57
2023/12/15 12:03:03;;;;;;;;;;;;;;;15.68;53.46;101548.03;4983692;28;1032;-58
2023/12/15 12:05:29;;;;;;;;;;;;;;;16.34;52.76;101563.88;4986557;28;1203;-58
2023/12/15 12:07:56;;;;;;;;;;;;;;;17.58;49.33;101554.31;4983051;28;1902;-58
2023/12/15 12:10:29;;;;;;;;;;;;;;;16.63;51.58;101557.38;4985255;28;1095;-61
2023/12/15 12:12:55;;;;;;;;;;;;;;;15.89;53.06;101546.47;4987269;28;1004;-59
2023/12/15 12:15:20;;;;;;;;;;;;;;;15.87;53.02;101577.97;4986266;28;1059;-58
2023/12/15 12:17:46;;;;;;;;;;;;;;;16.05;53.34;101587.84;4995336;28;1142;-59
2023/12/15 12:20:11;;;;;;;;;;;;;;;17.48;49.63;101587.22;4978168;28;1137;-59
2023/12/15 12:22:43;;;;;;;;;;;;;;;16.64;51.35;101589.25;4978176;28;1159;-58
2023/12/15 12:25:13;;;;;;;;;;;;;;;16.13;52.55;101583.84;4989512;28;992;-58
2023/12/15 12:27:38;;;;;;;;;;;;;;;15.85;53.03;101577.38;4980993;28;1969;-58
2023/12/15 12:30:11;;;;;;;;;;;;;;;16.85;51.42;101588.41;4987956;28;1223;-59
2023/12/15 12:32:36;;;;;;;;;;;;;;;17.09;50.57;101586.25;4984035;28;1079;-57
2023/12/15 12:35:03;;;;;;;;;;;;;;;16.37;52.17;101601.78;4997341;28;1132;-56
2023/12/15 12:37:29;;;;;;;;;;;;;;;15.95;53.06;101604.97;4984671;28;1114;-57
2023/12/15 12:39:55;;;;;;;;;;;;;;;15.77;53.22;101613.38;4990296;28;1212;-58